createdAt,value
2023-05-04T00:00:08.724Z,3.41
2023-05-04T00:10:11.031Z,3.45
2023-05-04T00:20:21.915Z,3.08
2023-05-04T00:30:31.016Z,2.87
2023-05-04T00:40:52.077Z,2.94
2023-05-04T00:50:54.247Z,2.83
2023-05-04T01:00:59.157Z,2.93
2023-05-04T01:11:11.957Z,2.72
2023-05-04T01:21:13.952Z,2.54
2023-05-04T01:31:17.950Z,2.49
2023-05-04T01:41:21.901Z,2.51
2023-05-04T01:51:25.025Z,2.32
2023-05-04T02:01:33.284Z,2.23
2023-05-04T02:11:35.241Z,2.08
2023-05-04T02:21:37.206Z,2.10
2023-05-04T02:31:39.206Z,1.99
2023-05-04T02:41:41.201Z,1.78
2023-05-04T02:51:44.256Z,1.83
2023-05-04T03:01:53.276Z,1.83
2023-05-04T03:11:55.643Z,1.80
2023-05-04T03:22:03.697Z,1.88
2023-05-04T03:33:11.390Z,1.93
2023-05-04T03:43:13.440Z,2.00
2023-05-04T03:53:22.254Z,2.78
2023-05-04T04:03:24.359Z,2.85
2023-05-04T04:13:28.169Z,3.15
2023-05-04T04:23:43.273Z,4.23
2023-05-04T04:34:02.469Z,5.84
2023-05-04T04:44:30.041Z,7.12
2023-05-04T04:54:32.073Z,8.17
2023-05-04T05:04:41.591Z,8.99
2023-05-04T05:14:44.677Z,9.40
2023-05-04T05:24:46.825Z,10.44
2023-05-04T05:34:50.979Z,11.57
2023-05-04T05:44:54.613Z,12.32
2023-05-04T05:54:56.705Z,12.46
2023-05-04T06:04:58.747Z,14.33
2023-05-04T06:15:00.900Z,14.03
2023-05-04T06:25:05.882Z,15.79
2023-05-04T06:35:11.949Z,15.33
2023-05-04T06:45:14.103Z,16.87
2023-05-04T06:55:22.171Z,15.90
2023-05-04T07:05:26.318Z,16.94
2023-05-04T07:15:28.388Z,17.61
2023-05-04T07:25:30.614Z,16.58
2023-05-04T07:35:32.667Z,17.55
2023-05-04T07:45:34.808Z,16.74
2023-05-04T07:55:37.119Z,17.43
2023-05-04T08:05:39.100Z,17.38
2023-05-04T08:15:41.613Z,17.12
2023-05-04T08:25:44.634Z,17.39
2023-05-04T08:35:50.023Z,18.04
2023-05-04T08:45:54.098Z,17.59
2023-05-04T08:56:04.259Z,17.97
2023-05-04T09:06:08.782Z,18.61
2023-05-04T09:16:17.239Z,17.25
2023-05-04T09:26:31.518Z,18.05
2023-05-04T09:36:33.454Z,17.96
2023-05-04T09:46:36.642Z,16.65
2023-05-04T09:56:48.950Z,16.99
2023-05-04T10:06:51.068Z,18.38
2023-05-04T10:17:18.221Z,17.12
2023-05-04T10:27:53.379Z,16.73
2023-05-04T10:37:56.798Z,16.89
2023-05-04T10:47:59.019Z,16.68
2023-05-04T10:58:02.157Z,16.99
2023-05-04T11:08:15.950Z,16.72
2023-05-04T11:18:32.766Z,17.04
2023-05-04T11:28:38.709Z,17.06
2023-05-04T11:38:44.157Z,16.57
2023-05-04T11:48:46.457Z,16.07
2023-05-04T11:58:48.472Z,16.15
2023-05-04T12:08:50.621Z,16.33
2023-05-04T12:19:03.773Z,16.42
2023-05-04T12:29:08.945Z,16.43
2023-05-04T12:39:11.015Z,16.86
2023-05-04T12:49:15.088Z,16.40
2023-05-04T12:59:17.218Z,16.72
2023-05-04T13:09:21.091Z,16.32
2023-05-04T13:19:23.229Z,16.76
2023-05-04T13:29:27.259Z,16.54
2023-05-04T13:39:29.529Z,16.64
2023-05-04T13:49:34.727Z,17.09
2023-05-04T13:59:36.814Z,17.03
2023-05-04T14:09:39.276Z,17.06
2023-05-04T14:19:41.216Z,16.95
2023-05-04T14:29:47.182Z,16.97
2023-05-04T14:39:50.899Z,17.01
2023-05-04T14:49:53.149Z,16.98
2023-05-04T14:59:55.318Z,16.99
2023-05-04T15:09:57.510Z,16.97
2023-05-04T15:20:04.412Z,16.80
2023-05-04T15:30:09.241Z,16.82
2023-05-04T15:40:12.972Z,16.93
2023-05-04T15:50:16.061Z,16.72
2023-05-04T16:00:19.472Z,16.59
2023-05-04T16:10:22.450Z,16.61
2023-05-04T16:20:24.602Z,16.43
2023-05-04T16:30:34.403Z,16.28
2023-05-04T16:40:38.606Z,16.23
2023-05-04T16:50:40.678Z,15.97
2023-05-04T17:00:43.080Z,15.85
2023-05-04T17:10:45.420Z,15.76
2023-05-04T17:20:47.339Z,15.06
2023-05-04T17:30:52.968Z,15.00
2023-05-04T17:40:54.947Z,14.63
2023-05-04T17:50:57.738Z,13.89
2023-05-04T18:00:59.793Z,13.03
2023-05-04T18:11:04.030Z,13.57
2023-05-04T18:21:06.020Z,12.47
2023-05-04T18:31:08.340Z,12.73
2023-05-04T18:41:12.455Z,12.17
2023-05-04T18:51:14.915Z,12.12
2023-05-04T19:01:16.974Z,12.21
2023-05-04T19:11:19.110Z,12.75
2023-05-04T19:21:22.857Z,12.51
2023-05-04T19:31:24.920Z,12.08
2023-05-04T19:41:28.966Z,11.95
2023-05-04T19:51:30.965Z,11.59
2023-05-04T20:01:33.913Z,10.65
2023-05-04T20:11:36.385Z,10.85
2023-05-04T20:21:38.459Z,10.61
2023-05-04T20:31:47.303Z,11.40
2023-05-04T20:42:08.788Z,11.38
2023-05-04T20:52:11.780Z,11.46
2023-05-04T21:02:17.878Z,11.71
2023-05-04T21:12:19.719Z,11.71
2023-05-04T21:22:21.858Z,11.64
2023-05-04T21:32:34.974Z,11.60
2023-05-04T21:42:36.950Z,11.36
2023-05-04T21:52:38.819Z,11.25
2023-05-04T22:02:59.777Z,11.14
2023-05-04T22:13:01.814Z,10.97
2023-05-04T22:23:04.666Z,10.92
2023-05-04T22:33:06.625Z,10.69
2023-05-04T22:43:08.783Z,10.67
2023-05-04T22:53:11.111Z,10.46
2023-05-04T23:03:57.970Z,10.32
2023-05-04T23:14:03.055Z,10.03
2023-05-04T23:24:05.209Z,9.88
2023-05-04T23:34:07.117Z,9.65
2023-05-04T23:44:08.990Z,9.56
2023-05-04T23:54:10.913Z,9.48
